Time;durP1;ratioP1;P1;durP2;ratioP2;P2;SDS_P1;SDS_P2;PMS_P1;PMS_P2;Temp;Humidity;BMP_temperature;BMP_pressure;BME280_temperature;BME280_humidity;BME280_pressure;Samples;Min_cycle;Max_cycle;Signal;HPM_P1;HPM_P2
2022/07/16 00:02:06;;;;;;;;;;;;;;;12.44;100.00;101228.72;5065672;28;19922;-75
2022/07/16 00:04:31;;;;;;;;;;;;;;;12.46;100.00;101229.41;5065242;28;20027;-74
2022/07/16 00:06:57;;;;;;;;;;;;;;;12.48;100.00;101221.19;5048770;28;19927;-76
2022/07/16 00:09:22;;;;;;;;;;;;;;;12.46;100.00;101218.69;5048522;28;20006;-74
2022/07/16 00:11:47;;;;;;;;;;;;;;;12.53;100.00;101222.41;5066705;28;19920;-75
2022/07/16 00:14:13;;;;;;;;;;;;;;;12.52;100.00;101223.38;5064987;28;19913;-74
2022/07/16 00:16:38;;;;;;;;;;;;;;;12.52;100.00;101214.50;5041838;28;19916;-74
2022/07/16 00:19:15;;;;;;;;;;;;;;;12.48;100.00;101211.34;5048496;28;20328;-75
2022/07/16 00:21:41;;;;;;;;;;;;;;;12.50;100.00;101208.47;5075171;28;19917;-74
2022/07/16 00:24:07;;;;;;;;;;;;;;;12.46;100.00;101202.63;5066315;28;19919;-75
2022/07/16 00:26:32;;;;;;;;;;;;;;;12.39;100.00;101188.22;5064969;28;20378;-72
2022/07/16 00:28:58;;;;;;;;;;;;;;;12.40;100.00;101187.22;5066081;28;19916;-75
2022/07/16 00:31:23;;;;;;;;;;;;;;;12.45;100.00;101179.50;5065901;28;19924;-71
2022/07/16 00:33:49;;;;;;;;;;;;;;;12.49;100.00;101172.84;5066174;28;20011;-71
2022/07/16 00:36:14;;;;;;;;;;;;;;;12.45;100.00;101163.44;5065951;28;20289;-72
2022/07/16 00:38:39;;;;;;;;;;;;;;;12.46;100.00;101157.94;5064682;28;19916;-71
2022/07/16 00:41:05;;;;;;;;;;;;;;;12.54;100.00;101145.56;5047767;28;19924;-73
2022/07/16 00:43:43;;;;;;;;;;;;;;;12.62;100.00;101138.38;5064810;28;19962;-71
2022/07/16 00:46:08;;;;;;;;;;;;;;;12.56;100.00;101125.63;5064615;28;19916;-71
2022/07/16 00:48:33;;;;;;;;;;;;;;;12.53;100.00;101123.31;5065790;28;19913;-72
2022/07/16 00:50:59;;;;;;;;;;;;;;;12.49;100.00;101110.41;5064378;28;19966;-72
2022/07/16 00:53:24;;;;;;;;;;;;;;;12.50;100.00;101101.34;5066047;28;19921;-71
2022/07/16 00:55:49;;;;;;;;;;;;;;;12.51;100.00;101092.34;5047610;28;19924;-74
2022/07/16 00:58:15;;;;;;;;;;;;;;;12.51;100.00;101087.81;5065955;28;19916;-75
2022/07/16 01:00:41;;;;;;;;;;;;;;;12.56;100.00;101088.16;5065737;28;19985;-74
2022/07/16 01:03:07;;;;;;;;;;;;;;;12.50;100.00;101083.44;5058023;28;20233;-74
2022/07/16 01:05:33;;;;;;;;;;;;;;;12.49;100.00;101079.09;5063452;28;20389;-74
2022/07/16 01:07:58;;;;;;;;;;;;;;;12.46;100.00;101069.56;5065315;28;19912;-72
2022/07/16 01:10:24;;;;;;;;;;;;;;;12.54;100.00;101068.72;5063603;28;20275;-71
2022/07/16 01:12:50;;;;;;;;;;;;;;;12.63;100.00;101065.03;5065435;28;20410;-72
2022/07/16 01:15:15;;;;;;;;;;;;;;;12.62;100.00;101063.38;5063503;28;19920;-72
2022/07/16 01:17:41;;;;;;;;;;;;;;;12.74;100.00;101065.72;5063720;28;19920;-73
2022/07/16 01:20:06;;;;;;;;;;;;;;;12.81;100.00;101051.47;5063597;28;19948;-71
2022/07/16 01:22:32;;;;;;;;;;;;;;;12.78;100.00;101051.81;5065370;28;19912;-73
2022/07/16 01:24:58;;;;;;;;;;;;;;;12.75;100.00;101057.50;5046656;28;19963;-72
2022/07/16 01:27:23;;;;;;;;;;;;;;;12.77;100.00;101051.97;5047182;28;19920;-71
2022/07/16 01:29:48;;;;;;;;;;;;;;;12.80;100.00;101033.72;5063382;28;19917;-72
2022/07/16 01:32:14;;;;;;;;;;;;;;;12.79;100.00;101039.25;5064827;28;19919;-73
2022/07/16 01:34:39;;;;;;;;;;;;;;;12.85;100.00;101035.88;5064792;28;19920;-71
2022/07/16 01:37:06;;;;;;;;;;;;;;;12.76;100.00;101034.22;5063822;28;19921;-72
2022/07/16 01:39:32;;;;;;;;;;;;;;;12.87;100.00;101034.69;5063648;28;20008;-73
2022/07/16 01:41:59;;;;;;;;;;;;;;;12.81;100.00;101026.53;5063943;28;19912;-73
2022/07/16 01:44:25;;;;;;;;;;;;;;;12.86;100.00;101016.13;5064291;28;19925;-73
2022/07/16 01:46:51;;;;;;;;;;;;;;;12.93;100.00;101025.16;5064749;28;19916;-73
2022/07/16 01:49:16;;;;;;;;;;;;;;;12.95;100.00;101020.47;5063306;28;19923;-74
2022/07/16 01:51:41;;;;;;;;;;;;;;;12.90;100.00;101017.47;5063313;28;19919;-73
2022/07/16 01:54:07;;;;;;;;;;;;;;;12.97;100.00;101023.81;5063245;28;20369;-73
2022/07/16 01:56:32;;;;;;;;;;;;;;;12.99;100.00;101012.91;5046514;28;19916;-72
2022/07/16 01:58:57;;;;;;;;;;;;;;;13.06;100.00;101019.25;5064394;28;19928;-73
2022/07/16 02:01:23;;;;;;;;;;;;;;;13.08;100.00;101012.69;5065477;28;19927;-75
2022/07/16 02:03:48;;;;;;;;;;;;;;;13.06;100.00;101012.06;5068184;28;19916;-76
2022/07/16 02:06:13;;;;;;;;;;;;;;;12.99;100.00;101011.03;5066588;28;19912;-73
2022/07/16 02:08:39;;;;;;;;;;;;;;;12.99;100.00;101010.22;5066950;28;19955;-74
2022/07/16 02:11:04;;;;;;;;;;;;;;;12.98;100.00;101016.59;5066631;28;19971;-74
2022/07/16 02:13:30;;;;;;;;;;;;;;;12.98;100.00;101016.59;5066667;28;19920;-73
2022/07/16 02:15:55;;;;;;;;;;;;;;;12.94;100.00;101018.78;5066516;28;19966;-75
2022/07/16 02:18:21;;;;;;;;;;;;;;;13.00;100.00;101018.09;5066672;28;19925;-75
2022/07/16 02:20:46;;;;;;;;;;;;;;;12.90;100.00;101017.47;5066360;28;20282;-73
2022/07/16 02:23:11;;;;;;;;;;;;;;;12.88;100.00;101019.47;5066281;28;19975;-72
2022/07/16 02:25:37;;;;;;;;;;;;;;;12.75;100.00;101019.16;5066314;28;20002;-71
2022/07/16 02:28:08;;;;;;;;;;;;;;;12.79;100.00;101026.69;5067868;28;20427;-73
2022/07/16 02:30:35;;;;;;;;;;;;;;;12.75;100.00;101025.34;5066594;28;20451;-74
2022/07/16 02:33:00;;;;;;;;;;;;;;;12.66;100.00;101015.66;5067711;28;19916;-74
2022/07/16 02:35:26;;;;;;;;;;;;;;;12.61;100.00;101018.84;5067364;28;19962;-72
2022/07/16 02:37:51;;;;;;;;;;;;;;;12.62;100.00;101025.88;5066180;28;20021;-74
2022/07/16 02:40:17;;;;;;;;;;;;;;;12.64;100.00;101021.19;5067042;28;19917;-71
2022/07/16 02:42:42;;;;;;;;;;;;;;;12.59;100.00;101036.91;5062170;28;19916;-73
2022/07/16 02:45:08;;;;;;;;;;;;;;;12.58;100.00;101032.56;5064002;28;20340;-75
2022/07/16 02:47:33;;;;;;;;;;;;;;;12.57;100.00;101032.72;5067290;28;19923;-75
2022/07/16 02:49:59;;;;;;;;;;;;;;;12.47;100.00;101043.63;5067227;28;19923;-73
2022/07/16 02:52:24;;;;;;;;;;;;;;;12.53;100.00;101051.00;5067241;28;19917;-74
2022/07/16 02:54:49;;;;;;;;;;;;;;;12.42;100.00;101054.00;5065996;28;19963;-76
2022/07/16 02:57:15;;;;;;;;;;;;;;;12.46;100.00;101058.84;5065869;28;20428;-73
2022/07/16 02:59:40;;;;;;;;;;;;;;;12.50;100.00;101058.50;5066810;28;19927;-74
2022/07/16 03:02:06;;;;;;;;;;;;;;;12.46;100.00;101058.03;5049246;28;20270;-74
2022/07/16 03:04:32;;;;;;;;;;;;;;;12.54;100.00;101067.91;5066734;28;19973;-75
2022/07/16 03:06:57;;;;;;;;;;;;;;;12.50;100.00;101070.06;5067073;28;19913;-76
2022/07/16 03:09:22;;;;;;;;;;;;;;;12.53;100.00;101076.94;5065682;28;20373;-74
2022/07/16 03:11:47;;;;;;;;;;;;;;;12.49;100.00;101076.44;5065538;28;20381;-75
2022/07/16 03:14:13;;;;;;;;;;;;;;;12.55;100.00;101077.59;5048473;28;20207;-73
2022/07/16 03:16:38;;;;;;;;;;;;;;;12.55;100.00;101093.66;5065314;28;20358;-76
2022/07/16 03:19:03;;;;;;;;;;;;;;;12.53;100.00;101083.13;5066775;28;19998;-76
2022/07/16 03:21:28;;;;;;;;;;;;;;;12.56;100.00;101088.16;5063760;28;19917;-75
2022/07/16 03:23:54;;;;;;;;;;;;;;;12.49;100.00;101089.81;5065364;28;20305;-74
2022/07/16 03:26:19;;;;;;;;;;;;;;;12.46;100.00;101095.50;5066738;28;19917;-76
2022/07/16 03:28:44;;;;;;;;;;;;;;;12.44;100.00;101098.34;5059457;28;20015;-74
2022/07/16 03:31:10;;;;;;;;;;;;;;;12.45;100.00;101104.53;5065134;28;19962;-74
2022/07/16 03:33:35;;;;;;;;;;;;;;;12.43;100.00;101101.19;5066605;28;19921;-75
2022/07/16 03:36:00;;;;;;;;;;;;;;;12.45;100.00;101115.25;5064899;28;19990;-75
2022/07/16 03:41:10;;;;;;;;;;;;;;;12.39;100.00;101110.56;5065317;28;19921;-74
2022/07/16 03:43:35;;;;;;;;;;;;;;;12.40;100.00;101122.94;5064920;28;19916;-75
2022/07/16 03:46:00;;;;;;;;;;;;;;;12.36;100.00;101122.44;5064691;28;20087;-76
2022/07/16 03:48:26;;;;;;;;;;;;;;;12.51;100.00;101138.69;5066214;28;19919;-76
2022/07/16 03:50:51;;;;;;;;;;;;;;;12.42;100.00;101137.00;5064382;28;19952;-75
2022/07/16 03:53:16;;;;;;;;;;;;;;;12.42;100.00;101140.50;5064727;28;19912;-76
2022/07/16 03:55:41;;;;;;;;;;;;;;;12.40;100.00;101147.03;5064712;28;20277;-75
2022/07/16 03:58:07;;;;;;;;;;;;;;;12.36;100.00;101151.03;5064702;28;20361;-74
2022/07/16 04:00:32;;;;;;;;;;;;;;;12.44;100.00;101146.53;5065738;28;19941;-74
2022/07/16 04:02:57;;;;;;;;;;;;;;;12.44;100.00;101157.25;5048113;28;19962;-72
2022/07/16 04:05:23;;;;;;;;;;;;;;;12.38;100.00;101149.03;5064455;28;19928;-77
2022/07/16 04:07:48;;;;;;;;;;;;;;;12.35;100.00;101149.38;5064680;28;20005;-74
2022/07/16 04:10:13;;;;;;;;;;;;;;;12.35;100.00;101158.25;5064603;28;19924;-72
2022/07/16 04:12:38;;;;;;;;;;;;;;;12.40;100.00;101161.25;5037626;28;19913;-72
2022/07/16 04:15:04;;;;;;;;;;;;;;;12.37;100.00;101160.78;5061152;28;20032;-76
2022/07/16 04:17:29;;;;;;;;;;;;;;;12.40;100.00;101166.63;5064856;28;19920;-74
2022/07/16 04:19:54;;;;;;;;;;;;;;;12.43;100.00;101176.16;5064090;28;19920;-75
2022/07/16 04:22:20;;;;;;;;;;;;;;;12.37;100.00;101176.84;5065665;28;19916;-77
2022/07/16 04:24:45;;;;;;;;;;;;;;;12.32;100.00;101171.97;5064688;28;19922;-75
2022/07/16 04:27:10;;;;;;;;;;;;;;;12.37;100.00;101176.84;5047522;28;20308;-73
2022/07/16 04:29:36;;;;;;;;;;;;;;;12.44;100.00;101183.22;5064042;28;19917;-73
2022/07/16 04:32:01;;;;;;;;;;;;;;;12.35;100.00;101176.16;5065067;28;19916;-73
2022/07/16 04:34:26;;;;;;;;;;;;;;;12.47;100.00;101177.50;5048090;28;20370;-74
2022/07/16 04:36:51;;;;;;;;;;;;;;;12.39;100.00;101181.03;5066680;28;19942;-75
2022/07/16 04:39:17;;;;;;;;;;;;;;;12.33;100.00;101183.50;5065962;28;20289;-75
2022/07/16 04:41:42;;;;;;;;;;;;;;;12.44;100.00;101186.72;5064758;28;19912;-75
2022/07/16 04:44:07;;;;;;;;;;;;;;;12.45;100.00;101182.19;5066372;28;19924;-74
2022/07/16 04:46:32;;;;;;;;;;;;;;;12.64;100.00;101181.91;5065983;28;20380;-76
2022/07/16 04:48:58;;;;;;;;;;;;;;;12.58;100.00;101187.91;5064785;28;19916;-75
2022/07/16 04:51:23;;;;;;;;;;;;;;;12.54;100.00;101181.22;5064252;28;20445;-75
2022/07/16 04:53:48;;;;;;;;;;;;;;;12.52;100.00;101185.06;5065653;28;19924;-72
2022/07/16 04:56:14;;;;;;;;;;;;;;;12.41;100.00;101191.56;5056294;28;20147;-75
2022/07/16 04:58:39;;;;;;;;;;;;;;;12.47;100.00;101182.88;5064069;28;19931;-75
2022/07/16 05:01:04;;;;;;;;;;;;;;;12.69;100.00;101200.16;5063649;28;20003;-75
2022/07/16 05:03:30;;;;;;;;;;;;;;;12.71;100.00;101205.34;5047215;28;19927;-77
2022/07/16 05:05:55;;;;;;;;;;;;;;;12.89;100.00;101198.00;5064933;28;19916;-75
2022/07/16 05:08:21;;;;;;;;;;;;;;;12.86;100.00;101198.34;5058196;28;19921;-76
2022/07/16 05:10:46;;;;;;;;;;;;;;;12.86;100.00;101198.34;5065001;28;19920;-75
2022/07/16 05:13:11;;;;;;;;;;;;;;;12.80;100.00;101204.34;5064886;28;20110;-75
2022/07/16 05:15:37;;;;;;;;;;;;;;;13.08;100.00;101208.38;5064770;28;20078;-74
2022/07/16 05:18:02;;;;;;;;;;;;;;;13.27;100.00;101217.09;5066314;28;20403;-75
2022/07/16 05:20:28;;;;;;;;;;;;;;;13.21;100.00;101209.75;5065738;28;19938;-75
2022/07/16 05:22:53;;;;;;;;;;;;;;;13.54;100.00;101217.78;5064994;28;19951;-75
2022/07/16 05:25:18;;;;;;;;;;;;;;;13.72;100.00;101216.56;5064724;28;20049;-75
2022/07/16 05:27:44;;;;;;;;;;;;;;;13.61;100.00;101198.13;5066296;28;19920;-75
2022/07/16 05:30:10;;;;;;;;;;;;;;;13.86;100.00;101206.09;5064934;28;19920;-76
2022/07/16 05:32:36;;;;;;;;;;;;;;;14.11;100.00;101196.94;5066296;28;19920;-78
2022/07/16 05:35:01;;;;;;;;;;;;;;;13.86;100.00;101173.91;5064705;28;19916;-75
2022/07/16 05:37:27;;;;;;;;;;;;;;;13.54;100.00;101169.50;5067954;28;19921;-76
2022/07/16 05:39:52;;;;;;;;;;;;;;;13.71;100.00;101176.47;5068436;28;19912;-76
2022/07/16 05:42:17;;;;;;;;;;;;;;;15.07;100.00;101194.84;5067916;28;20019;-75
2022/07/16 05:44:42;;;;;;;;;;;;;;;15.46;100.00;101129.25;5051815;28;19962;-75
2022/07/16 05:47:08;;;;;;;;;;;;;;;16.01;100.00;101090.25;5068225;28;19916;-75
2022/07/16 05:49:34;;;;;;;;;;;;;;;16.31;100.00;101022.78;5068158;28;19923;-75
2022/07/16 05:51:59;;;;;;;;;;;;;;;16.93;100.00;100929.53;5068399;28;19920;-76
2022/07/16 05:54:24;;;;;;;;;;;;;;;17.43;100.00;100900.44;5068190;28;20002;-76
2022/07/16 05:56:50;;;;;;;;;;;;;;;17.49;100.00;100780.06;5067776;28;19921;-76
2022/07/16 05:59:15;;;;;;;;;;;;;;;17.51;100.00;100702.38;5069089;28;19923;-76
2022/07/16 06:01:41;;;;;;;;;;;;;;;17.75;100.00;100870.16;5066158;28;20285;-76
2022/07/16 06:04:06;;;;;;;;;;;;;;;17.71;100.00;100724.78;5066888;28;19917;-76
2022/07/16 06:06:31;;;;;;;;;;;;;;;17.65;100.00;100768.00;5068051;28;19920;-76
2022/07/16 06:08:56;;;;;;;;;;;;;;;17.27;100.00;100691.19;5050938;28;19924;-75
2022/07/16 06:11:22;;;;;;;;;;;;;;;16.71;100.00;100653.78;5067041;28;20007;-73
2022/07/16 06:13:47;;;;;;;;;;;;;;;16.43;100.00;100751.75;5068034;28;19913;-73
2022/07/16 06:16:13;;;;;;;;;;;;;;;16.72;100.00;100876.50;5067198;28;20369;-73
2022/07/16 06:18:38;;;;;;;;;;;;;;;15.76;100.00;100698.59;5067365;28;19916;-73
2022/07/16 06:21:04;;;;;;;;;;;;;;;16.16;100.00;100834.31;5067242;28;20009;-73
2022/07/16 06:23:29;;;;;;;;;;;;;;;16.77;100.00;100836.28;5067229;28;19919;-74
2022/07/16 06:25:55;;;;;;;;;;;;;;;16.75;100.00;100849.13;5068025;28;19931;-74
2022/07/16 06:28:20;;;;;;;;;;;;;;;17.02;100.00;100806.97;5068242;28;19979;-74
2022/07/16 06:30:45;;;;;;;;;;;;;;;17.15;100.00;100838.53;5066529;28;19923;-73
2022/07/16 06:33:10;;;;;;;;;;;;;;;17.84;100.00;100739.34;5067024;28;19913;-73
2022/07/16 06:35:36;;;;;;;;;;;;;;;17.01;100.00;100604.88;5068140;28;20006;-73
2022/07/16 06:38:02;;;;;;;;;;;;;;;17.30;100.00;100831.09;5067187;28;20003;-73
2022/07/16 06:40:27;;;;;;;;;;;;;;;15.79;100.00;100606.69;5066714;28;20275;-74
2022/07/16 06:42:53;;;;;;;;;;;;;;;16.17;100.00;100857.50;5068160;28;19919;-73
2022/07/16 06:45:20;;;;;;;;;;;;;;;15.80;100.00;100810.22;5049801;28;19943;-77
2022/07/16 06:47:45;;;;;;;;;;;;;;;15.89;100.00;100951.75;5065615;28;19978;-76
2022/07/16 06:50:10;;;;;;;;;;;;;;;15.63;100.00;101009.63;5066834;28;19964;-75
2022/07/16 06:52:36;;;;;;;;;;;;;;;15.55;100.00;101028.56;5067101;28;19950;-75
2022/07/16 06:55:01;;;;;;;;;;;;;;;16.80;100.00;101100.16;5049432;28;20419;-75
2022/07/16 06:57:27;;;;;;;;;;;;;;;17.87;100.00;101017.94;5067381;28;20305;-76
2022/07/16 06:59:52;;;;;;;;;;;;;;;15.65;100.00;100661.44;5066512;28;19918;-75
2022/07/16 07:02:17;;;;;;;;;;;;;;;14.81;100.00;100812.75;5066695;28;19912;-75
2022/07/16 07:04:42;;;;;;;;;;;;;;;15.05;100.00;101016.72;5066757;28;19916;-75
2022/07/16 07:07:08;;;;;;;;;;;;;;;14.81;100.00;100980.22;5067557;28;19936;-76
2022/07/16 07:09:33;;;;;;;;;;;;;;;14.59;100.00;101030.31;5050070;28;19966;-76
2022/07/16 07:11:58;;;;;;;;;;;;;;;15.43;100.00;101040.84;5067003;28;20416;-75
2022/07/16 07:14:24;;;;;;;;;;;;;;;16.24;100.00;101000.34;5066604;28;19928;-75
2022/07/16 07:16:49;;;;;;;;;;;;;;;16.36;100.00;100926.03;5066557;28;19974;-76
2022/07/16 07:19:14;;;;;;;;;;;;;;;16.69;100.00;100876.88;5066472;28;19985;-77
2022/07/16 07:21:39;;;;;;;;;;;;;;;16.32;100.00;100886.19;5067493;28;20325;-76
2022/07/16 07:24:05;;;;;;;;;;;;;;;16.86;100.00;100915.19;5066390;28;19920;-77
2022/07/16 07:26:30;;;;;;;;;;;;;;;17.57;100.00;100858.13;5066280;28;19912;-76
2022/07/16 07:28:56;;;;;;;;;;;;;;;16.40;100.00;100657.88;5066363;28;19924;-76
2022/07/16 07:31:21;;;;;;;;;;;;;;;15.76;100.00;100710.19;5049281;28;20357;-76
2022/07/16 07:33:46;;;;;;;;;;;;;;;15.51;100.00;100873.91;5065940;28;19942;-76
2022/07/16 07:36:12;;;;;;;;;;;;;;;15.09;100.00;100880.06;5065798;28;19958;-76
2022/07/16 07:38:37;;;;;;;;;;;;;;;15.03;100.00;100899.63;5066028;28;19999;-76
2022/07/16 07:41:02;;;;;;;;;;;;;;;15.10;100.00;100935.50;5065888;28;19920;-76
2022/07/16 07:43:28;;;;;;;;;;;;;;;15.38;100.00;100949.09;5065920;28;19916;-76
2022/07/16 07:45:53;;;;;;;;;;;;;;;15.05;100.00;100944.13;5067162;28;19965;-76
2022/07/16 07:48:19;;;;;;;;;;;;;;;14.77;100.00;100955.56;5067147;28;20460;-76
2022/07/16 07:50:44;;;;;;;;;;;;;;;15.04;100.00;100958.59;5066090;28;20027;-76
2022/07/16 07:53:10;;;;;;;;;;;;;;;15.50;100.00;101032.84;5065933;28;19920;-76
2022/07/16 07:55:35;;;;;;;;;;;;;;;16.73;100.00;101090.31;5049190;28;19913;-76
2022/07/16 07:58:00;;;;;;;;;;;;;;;17.47;100.00;101042.06;5066738;28;20381;-76
2022/07/16 08:00:26;;;;;;;;;;;;;;;18.01;100.00;100963.94;5065043;28;19991;-76
2022/07/16 08:02:51;;;;;;;;;;;;;;;18.26;100.00;100774.97;5065392;28;19920;-76
2022/07/16 08:05:17;;;;;;;;;;;;;;;18.79;100.00;100699.06;5065393;28;19916;-76
2022/07/16 08:07:43;;;;;;;;;;;;;;;18.73;95.82;100491.69;5065310;28;19916;-74
2022/07/16 08:10:09;;;;;;;;;;;;;;;18.50;98.43;100549.09;5066358;28;19913;-73
2022/07/16 08:12:35;;;;;;;;;;;;;;;17.95;100.00;100621.72;5065193;28;19916;-74
2022/07/16 08:15:00;;;;;;;;;;;;;;;16.48;100.00;100523.97;5065905;28;20421;-74
2022/07/16 08:17:26;;;;;;;;;;;;;;;15.89;100.00;100666.34;5065997;28;19947;-74
2022/07/16 08:19:51;;;;;;;;;;;;;;;15.53;100.00;100565.13;5064335;28;19971;-73
2022/07/16 08:22:16;;;;;;;;;;;;;;;15.60;100.00;100735.50;5066103;28;19923;-76
2022/07/16 08:27:26;;;;;;;;;;;;;;;17.15;100.00;100660.50;5064998;28;19999;-76
2022/07/16 08:29:51;;;;;;;;;;;;;;;17.28;98.20;100552.56;5065137;28;20049;-76
2022/07/16 08:32:17;;;;;;;;;;;;;;;18.54;95.09;100721.47;5066352;28;19927;-77
2022/07/16 08:34:42;;;;;;;;;;;;;;;18.06;77.41;100222.09;5064749;28;19931;-76
2022/07/16 08:37:10;;;;;;;;;;;;;;;18.91;88.08;100681.09;5064352;28;20373;-76
2022/07/16 08:39:45;;;;;;;;;;;;;;;18.95;94.59;100752.66;5064954;28;19913;-76
2022/07/16 08:42:11;;;;;;;;;;;;;;;17.67;100.00;100720.84;5066244;28;19977;-75
2022/07/16 08:44:40;;;;;;;;;;;;;;;17.38;100.00;100869.72;5064630;28;20393;-76
2022/07/16 08:47:09;;;;;;;;;;;;;;;16.54;100.00;100692.94;5064611;28;19917;-73
2022/07/16 08:49:35;;;;;;;;;;;;;;;16.53;100.00;100882.59;5064271;28;19917;-77
2022/07/16 08:52:02;;;;;;;;;;;;;;;16.73;100.00;100974.38;5064809;28;20550;-76
2022/07/16 08:54:29;;;;;;;;;;;;;;;17.77;100.00;100847.34;5064683;28;19912;-76
2022/07/16 08:56:54;;;;;;;;;;;;;;;18.63;92.29;100721.19;5065856;28;19932;-76
2022/07/16 08:59:19;;;;;;;;;;;;;;;18.94;83.23;100593.25;5064695;28;19920;-76
2022/07/16 09:01:45;;;;;;;;;;;;;;;19.10;82.51;100640.59;5065683;28;19921;-76
2022/07/16 09:04:10;;;;;;;;;;;;;;;20.19;79.32;100749.31;5045534;28;20025;-76
2022/07/16 09:06:35;;;;;;;;;;;;;;;19.63;67.03;100233.88;5064648;28;19922;-77
2022/07/16 09:09:01;;;;;;;;;;;;;;;19.00;73.86;100389.50;5065115;28;19982;-76
2022/07/16 09:11:29;;;;;;;;;;;;;;;18.38;75.47;100354.38;5069553;28;19917;-77
2022/07/16 09:14:04;;;;;;;;;;;;;;;18.49;75.27;100396.06;5065532;28;19917;-77
2022/07/16 09:16:38;;;;;;;;;;;;;;;17.90;77.95;100355.00;5062059;28;19927;-77
2022/07/16 09:19:06;;;;;;;;;;;;;;;17.89;79.51;100410.09;5069891;28;19921;-76
2022/07/16 09:21:32;;;;;;;;;;;;;;;18.07;82.43;100529.00;5063102;28;19916;-77
2022/07/16 09:23:58;;;;;;;;;;;;;;;19.15;82.30;100762.50;5068823;28;20301;-76
2022/07/16 09:26:25;;;;;;;;;;;;;;;19.75;73.33;100589.53;5068585;28;19927;-77
2022/07/16 09:28:51;;;;;;;;;;;;;;;19.57;70.67;100497.44;5068590;28;19927;-77
2022/07/16 09:31:34;;;;;;;;;;;;;;;20.11;70.14;100636.63;5069539;28;19912;-76
2022/07/16 09:34:04;;;;;;;;;;;;;;;18.95;71.92;100429.94;5069819;28;19921;-77
2022/07/16 09:36:29;;;;;;;;;;;;;;;18.34;80.31;100550.44;5061113;28;20732;-77
2022/07/16 09:38:55;;;;;;;;;;;;;;;17.97;83.60;100587.25;5069480;28;19935;-76
2022/07/16 09:41:20;;;;;;;;;;;;;;;18.42;93.87;100923.19;5051534;28;19927;-76
2022/07/16 09:43:46;;;;;;;;;;;;;;;19.27;77.95;100727.44;5068380;28;20361;-76
2022/07/16 09:46:16;;;;;;;;;;;;;;;19.43;69.76;100539.28;5068254;28;19916;-77
2022/07/16 09:48:44;;;;;;;;;;;;;;;19.29;67.79;100428.47;5068134;28;19943;-76
2022/07/16 09:51:12;;;;;;;;;;;;;;;19.95;65.03;100482.81;5068210;28;19916;-76
2022/07/16 09:53:43;;;;;;;;;;;;;;;20.03;62.08;100379.50;5051176;28;19916;-76
2022/07/16 09:56:09;;;;;;;;;;;;;;;20.82;63.70;100631.47;5069022;28;19925;-76
2022/07/16 09:58:35;;;;;;;;;;;;;;;20.54;67.06;100656.50;5067845;28;20767;-77
2022/07/16 10:01:01;;;;;;;;;;;;;;;19.29;64.32;100287.75;5068880;28;19917;-76
2022/07/16 10:03:27;;;;;;;;;;;;;;;18.79;66.56;100290.72;5068981;28;19912;-76
2022/07/16 10:05:53;;;;;;;;;;;;;;;18.03;75.22;100422.44;5068758;28;19923;-74
2022/07/16 10:08:18;;;;;;;;;;;;;;;17.71;84.16;100607.88;5068695;28;19917;-74
2022/07/16 10:10:44;;;;;;;;;;;;;;;18.74;85.92;100899.00;5050866;28;19983;-73
2022/07/16 10:13:09;;;;;;;;;;;;;;;19.68;70.18;100653.78;5050740;28;19916;-74
2022/07/16 10:15:35;;;;;;;;;;;;;;;20.58;63.62;100609.72;5067548;28;19923;-77
2022/07/16 10:18:00;;;;;;;;;;;;;;;19.99;59.83;100286.22;5067883;28;20003;-76
2022/07/16 10:20:26;;;;;;;;;;;;;;;19.92;63.81;100529.31;5068423;28;20038;-76
2022/07/16 10:22:51;;;;;;;;;;;;;;;18.89;62.69;100255.00;5067720;28;19916;-76
2022/07/16 10:25:19;;;;;;;;;;;;;;;18.62;63.85;100260.75;5068707;28;19970;-76
2022/07/16 10:27:44;;;;;;;;;;;;;;;18.00;69.28;100355.34;5067504;28;20713;-77
2022/07/16 10:30:15;;;;;;;;;;;;;;;19.77;69.75;100803.31;5052226;28;19922;-77
2022/07/16 10:33:12;;;;;;;;;;;;;;;20.27;60.83;100525.91;5063885;28;19940;-76
2022/07/16 10:35:38;;;;;;;;;;;;;;;19.35;59.57;100259.75;5061580;28;20319;-76
2022/07/16 10:38:18;;;;;;;;;;;;;;;18.61;64.41;100350.19;5050550;28;19917;-76
2022/07/16 10:40:44;;;;;;;;;;;;;;;18.72;68.58;100541.41;5060482;28;19924;-76
2022/07/16 10:43:10;;;;;;;;;;;;;;;19.73;63.96;100569.16;5060083;28;19917;-77
2022/07/16 10:45:48;;;;;;;;;;;;;;;19.55;67.23;100653.91;5066756;28;19951;-76
2022/07/16 10:48:14;;;;;;;;;;;;;;;20.52;62.39;100710.94;5066947;28;20003;-76
2022/07/16 10:50:39;;;;;;;;;;;;;;;20.91;55.73;100398.59;5067696;28;19995;-77
2022/07/16 10:53:05;;;;;;;;;;;;;;;21.57;58.08;100739.47;5068129;28;19935;-78
2022/07/16 10:55:35;;;;;;;;;;;;;;;21.19;56.82;100500.97;5066800;28;19999;-78
2022/07/16 10:58:00;;;;;;;;;;;;;;;21.68;55.03;100569.38;5066994;28;19921;-77
2022/07/16 11:00:26;;;;;;;;;;;;;;;20.77;55.36;100305.81;5049966;28;20430;-76
2022/07/16 11:02:56;;;;;;;;;;;;;;;19.36;57.83;100204.56;5066787;28;19922;-76
2022/07/16 11:05:23;;;;;;;;;;;;;;;19.63;63.01;100537.16;5067744;28;20042;-76
2022/07/16 11:07:49;;;;;;;;;;;;;;;19.66;57.78;100274.03;5067847;28;19919;-77
2022/07/16 11:10:14;;;;;;;;;;;;;;;18.98;61.43;100335.59;5067605;28;19920;-77
2022/07/16 11:12:40;;;;;;;;;;;;;;;19.01;66.86;100593.22;5066322;28;19939;-78
2022/07/16 11:15:06;;;;;;;;;;;;;;;19.53;63.53;100601.88;5065835;28;19917;-76
2022/07/16 11:17:33;;;;;;;;;;;;;;;20.60;59.60;100667.28;5065435;28;19913;-77
2022/07/16 11:20:00;;;;;;;;;;;;;;;21.36;56.76;100632.22;5065921;28;19927;-76
2022/07/16 11:22:26;;;;;;;;;;;;;;;21.91;55.70;100721.53;5060389;28;19916;-79
2022/07/16 11:24:59;;;;;;;;;;;;;;;20.63;55.90;100384.75;5066192;28;19952;-77
2022/07/16 11:27:35;;;;;;;;;;;;;;;19.90;57.64;100379.72;5060485;28;19931;-78
2022/07/16 11:30:01;;;;;;;;;;;;;;;21.38;58.01;100771.31;5065733;28;19923;-78
2022/07/16 11:32:27;;;;;;;;;;;;;;;21.83;54.14;100623.22;5049703;28;20294;-77
2022/07/16 11:34:53;;;;;;;;;;;;;;;21.10;56.25;100586.56;5049666;28;19924;-77
2022/07/16 11:37:19;;;;;;;;;;;;;;;19.97;58.59;100453.59;5066807;28;19917;-77
2022/07/16 11:39:44;;;;;;;;;;;;;;;19.29;63.06;100542.16;5049207;28;19920;-78
2022/07/16 11:42:10;;;;;;;;;;;;;;;19.08;66.83;100630.00;5065910;28;19970;-79
2022/07/16 11:44:37;;;;;;;;;;;;;;;19.64;61.32;100563.19;5066168;28;20566;-77
2022/07/16 11:47:04;;;;;;;;;;;;;;;19.99;57.88;100489.41;5049329;28;19924;-77
2022/07/16 11:49:29;;;;;;;;;;;;;;;20.94;54.65;100507.50;5057994;28;19924;-79
2022/07/16 11:51:56;;;;;;;;;;;;;;;21.01;52.21;100372.50;5049464;28;19913;-77
2022/07/16 11:54:22;;;;;;;;;;;;;;;21.54;52.49;100559.84;5065375;28;19917;-78
2022/07/16 11:56:48;;;;;;;;;;;;;;;21.35;51.98;100448.63;5066867;28;19924;-78
2022/07/16 11:59:17;;;;;;;;;;;;;;;21.55;52.99;100575.09;5065546;28;20734;-79
2022/07/16 12:01:42;;;;;;;;;;;;;;;21.68;51.89;100539.47;5042395;28;19947;-78
2022/07/16 12:04:08;;;;;;;;;;;;;;;21.62;53.49;100592.09;5065680;28;20008;-76
2022/07/16 12:06:33;;;;;;;;;;;;;;;20.46;59.40;100652.19;5065544;28;19920;-77
2022/07/16 12:08:59;;;;;;;;;;;;;;;19.50;60.17;100477.75;5065515;28;19924;-77
2022/07/16 12:11:33;;;;;;;;;;;;;;;18.99;62.34;100482.53;5065558;28;19916;-78
2022/07/16 12:13:59;;;;;;;;;;;;;;;19.33;68.61;100821.31;5048981;28;20351;-77
2022/07/16 12:16:25;;;;;;;;;;;;;;;20.25;61.97;100778.22;5065225;28;19920;-79
2022/07/16 12:19:00;;;;;;;;;;;;;;;20.33;56.76;100562.94;5065510;28;20034;-78
2022/07/16 12:21:30;;;;;;;;;;;;;;;20.83;54.52;100551.72;5065160;28;19923;-77
2022/07/16 12:23:56;;;;;;;;;;;;;;;21.73;55.37;100841.19;5066402;28;19912;-76
2022/07/16 12:26:32;;;;;;;;;;;;;;;21.92;53.56;100685.13;5065097;28;19917;-77
2022/07/16 12:28:57;;;;;;;;;;;;;;;21.61;53.41;100598.56;5050317;28;19923;-77
2022/07/16 12:31:25;;;;;;;;;;;;;;;21.05;55.26;100601.66;5069753;28;19917;-77